Time;durP1;ratioP1;P1;durP2;ratioP2;P2;SDS_P1;SDS_P2;PMS_P1;PMS_P2;Temp;Humidity;BMP_temperature;BMP_pressure;BME280_temperature;BME280_humidity;BME280_pressure;Samples;Min_cycle;Max_cycle;Signal;HPM_P1;HPM_P2
2021/01/30 00:00:46;;;;;;;0.10;0.10;;;8.30;99.90;;;;;;5043036;28;20214;-85
2021/01/30 00:03:14;;;;;;;0.20;0.20;;;8.30;99.90;;;;;;5032864;28;20181;-84
2021/01/30 00:05:40;;;;;;;0.10;0.10;;;8.30;99.90;;;;;;5031992;28;20681;-86
2021/01/30 00:08:06;;;;;;;0.20;0.20;;;8.20;99.90;;;;;;5039157;28;20196;-84
2021/01/30 00:10:33;;;;;;;2.87;0.50;;;8.20;99.90;;;;;;5048563;28;20298;-84
2021/01/30 00:12:58;;;;;;;2.40;0.07;;;8.20;99.90;;;;;;5042395;28;20662;-85
2021/01/30 00:15:26;;;;;;;1.00;0.87;;;8.30;99.90;;;;;;5033931;28;20187;-84
2021/01/30 00:17:53;;;;;;;0.10;0.10;;;8.30;99.90;;;;;;5042037;28;20654;-84
2021/01/30 00:20:27;;;;;;;0.03;0.03;;;8.30;99.90;;;;;;5039548;28;20678;-84
2021/01/30 00:22:54;;;;;;;0.20;0.20;;;8.30;99.90;;;;;;5042069;28;20196;-84
2021/01/30 00:25:23;;;;;;;0.00;0.00;;;8.20;99.90;;;;;;5034064;28;20212;-84
2021/01/30 00:27:49;;;;;;;0.00;0.00;;;8.20;99.90;;;;;;5029952;28;20218;-84
2021/01/30 00:30:16;;;;;;;0.10;0.10;;;8.20;99.90;;;;;;5043444;28;20225;-84
2021/01/30 00:32:42;;;;;;;0.10;0.10;;;8.10;99.90;;;;;;5042934;28;20678;-84
2021/01/30 00:35:09;;;;;;;0.10;0.10;;;8.10;99.90;;;;;;5034682;28;20182;-84
2021/01/30 00:37:35;;;;;;;0.30;0.30;;;8.10;99.90;;;;;;5045266;28;20193;-85
2021/01/30 00:40:00;;;;;;;0.33;0.33;;;8.10;99.90;;;;;;5040485;28;20227;-85
2021/01/30 00:42:27;;;;;;;0.10;0.10;;;8.10;99.90;;;;;;5038639;28;20214;-84
2021/01/30 00:44:53;;;;;;;0.00;0.00;;;8.20;99.90;;;;;;5049257;28;20219;-84
2021/01/30 00:47:20;;;;;;;0.37;0.37;;;8.20;99.90;;;;;;5037508;28;20210;-85
2021/01/30 00:49:47;;;;;;;0.10;0.10;;;8.10;99.90;;;;;;5035145;28;20202;-84
2021/01/30 00:52:16;;;;;;;0.10;0.10;;;8.20;99.90;;;;;;5037447;28;20198;-84
2021/01/30 00:54:41;;;;;;;0.43;0.20;;;8.10;99.90;;;;;;5035805;28;20584;-85
2021/01/30 00:57:07;;;;;;;0.10;0.10;;;8.10;99.90;;;;;;5046947;28;20200;-84
2021/01/30 00:59:34;;;;;;;0.77;0.20;;;8.10;99.90;;;;;;5036545;28;20216;-84
2021/01/30 01:01:59;;;;;;;0.10;0.10;;;8.10;99.90;;;;;;5035192;28;20284;-84
2021/01/30 01:04:25;;;;;;;0.17;0.17;;;8.00;99.90;;;;;;5048569;28;20219;-85
2021/01/30 01:06:51;;;;;;;0.10;0.10;;;8.00;99.90;;;;;;5046438;28;20573;-84
2021/01/30 01:09:18;;;;;;;0.10;0.10;;;8.00;99.90;;;;;;5036988;28;20237;-85
2021/01/30 01:11:46;;;;;;;0.10;0.10;;;8.00;99.90;;;;;;5034722;28;20265;-84
2021/01/30 01:14:12;;;;;;;0.30;0.30;;;8.00;99.90;;;;;;5048099;28;20738;-84
2021/01/30 01:16:38;;;;;;;0.00;0.00;;;8.00;99.90;;;;;;5035080;28;20263;-85
2021/01/30 01:19:04;;;;;;;0.30;0.30;;;7.90;99.90;;;;;;5036678;28;20202;-84
2021/01/30 01:21:30;;;;;;;0.20;0.20;;;8.00;99.90;;;;;;5032990;28;20691;-86
2021/01/30 01:23:56;;;;;;;0.10;0.10;;;8.00;99.90;;;;;;5029923;28;20187;-84
2021/01/30 01:26:22;;;;;;;0.17;0.17;;;8.00;99.90;;;;;;5043256;28;20276;-85
2021/01/30 01:28:49;;;;;;;0.10;0.10;;;8.00;99.90;;;;;;5053241;28;20212;-85
2021/01/30 01:31:16;;;;;;;0.10;0.10;;;8.00;99.90;;;;;;5031704;28;20220;-84
2021/01/30 01:33:42;;;;;;;0.10;0.10;;;8.00;99.90;;;;;;5037600;28;20591;-83
2021/01/30 01:36:09;;;;;;;0.27;0.20;;;8.00;99.90;;;;;;5046469;28;20272;-85
2021/01/30 01:38:34;;;;;;;0.07;0.07;;;8.00;99.90;;;;;;5039635;28;20709;-85
2021/01/30 01:41:01;;;;;;;0.10;0.10;;;8.00;99.90;;;;;;5047604;28;20205;-85
2021/01/30 01:43:27;;;;;;;0.20;0.20;;;7.90;99.90;;;;;;5039866;28;20182;-84
2021/01/30 01:46:24;;;;;;;0.87;0.87;;;7.90;99.90;;;;;;5040981;28;20187;-84
2021/01/30 01:49:09;;;;;;;0.10;0.10;;;8.00;99.90;;;;;;5049750;28;20185;-85
2021/01/30 01:51:43;;;;;;;0.00;0.00;;;8.00;99.90;;;;;;5040028;28;20220;-85
2021/01/30 01:54:14;;;;;;;0.13;0.13;;;8.00;99.90;;;;;;5029070;28;20619;-84
2021/01/30 01:56:41;;;;;;;0.10;0.10;;;8.00;99.90;;;;;;5033089;28;20202;-86
2021/01/30 01:59:10;;;;;;;1.13;0.77;;;8.10;99.90;;;;;;5036127;28;20210;-84
2021/01/30 02:01:37;;;;;;;0.10;0.10;;;8.10;99.90;;;;;;5040893;28;20313;-85
2021/01/30 02:04:07;;;;;;;0.10;0.10;;;8.10;99.90;;;;;;5037623;28;20236;-85
2021/01/30 02:06:35;;;;;;;1.03;0.50;;;8.10;99.90;;;;;;5032814;28;20230;-84
2021/01/30 02:09:00;;;;;;;0.10;0.10;;;8.10;99.90;;;;;;5035658;28;20193;-84
2021/01/30 02:11:26;;;;;;;0.10;0.10;;;8.20;99.90;;;;;;5044271;28;20207;-84
2021/01/30 02:13:55;;;;;;;0.63;0.10;;;8.10;99.90;;;;;;5042600;28;20200;-84
2021/01/30 02:16:40;;;;;;;0.10;0.10;;;8.10;99.90;;;;;;5032562;28;20206;-84
2021/01/30 02:19:44;;;;;;;0.10;0.10;;;8.10;99.90;;;;;;5038237;28;20213;-84
2021/01/30 02:22:34;;;;;;;0.10;0.10;;;8.20;99.90;;;;;;5033331;28;20224;-84
2021/01/30 02:25:39;;;;;;;0.10;0.10;;;8.20;99.90;;;;;;5036712;28;20166;-85
2021/01/30 02:28:47;;;;;;;0.10;0.10;;;8.10;99.90;;;;;;5024125;28;20658;-86
2021/01/30 02:31:25;;;;;;;0.10;0.10;;;8.10;99.90;;;;;;5019524;28;20223;-84
2021/01/30 02:34:19;;;;;;;0.00;0.00;;;8.10;99.90;;;;;;5039194;28;20187;-84
2021/01/30 02:37:08;;;;;;;0.07;0.07;;;8.10;99.90;;;;;;5036281;28;20192;-85
2021/01/30 02:39:49;;;;;;;0.10;0.10;;;8.00;99.90;;;;;;5039215;28;20214;-84
2021/01/30 02:42:29;;;;;;;0.10;0.10;;;8.10;99.90;;;;;;5045502;28;20330;-84
2021/01/30 02:45:06;;;;;;;0.00;0.00;;;8.10;99.90;;;;;;5038013;28;20182;-85
2021/01/30 02:47:42;;;;;;;0.40;0.20;;;8.10;99.90;;;;;;5045563;28;20194;-84
2021/01/30 02:50:14;;;;;;;0.00;0.00;;;8.10;99.90;;;;;;5034864;28;20218;-84
2021/01/30 02:52:41;;;;;;;0.07;0.07;;;8.10;99.90;;;;;;5045936;28;20562;-83
2021/01/30 02:55:11;;;;;;;0.10;0.10;;;8.10;99.90;;;;;;5033131;28;20182;-84
2021/01/30 02:57:37;;;;;;;0.00;0.00;;;8.10;99.90;;;;;;5036192;28;20278;-85
2021/01/30 03:00:07;;;;;;;0.10;0.10;;;8.10;99.90;;;;;;5043225;28;20234;-85
2021/01/30 03:02:50;;;;;;;0.10;0.10;;;8.10;99.90;;;;;;5044973;28;20193;-84
2021/01/30 03:05:16;;;;;;;0.00;0.00;;;8.10;99.90;;;;;;5031854;28;20190;-84
2021/01/30 03:08:01;;;;;;;0.20;0.20;;;8.10;99.90;;;;;;5043989;28;20224;-84
2021/01/30 03:10:35;;;;;;;0.10;0.10;;;8.10;99.90;;;;;;5040458;28;20281;-85
2021/01/30 03:13:18;;;;;;;0.10;0.10;;;8.10;99.90;;;;;;5041030;28;20193;-83
2021/01/30 03:15:52;;;;;;;0.07;0.07;;;8.00;99.90;;;;;;5038017;28;20202;-85
2021/01/30 03:18:23;;;;;;;0.00;0.00;;;8.00;99.90;;;;;;5041083;28;20206;-86
2021/01/30 03:20:50;;;;;;;0.10;0.10;;;8.00;99.90;;;;;;5045423;28;20226;-84
2021/01/30 03:23:17;;;;;;;0.00;0.00;;;8.00;99.90;;;;;;5045790;28;20543;-84
2021/01/30 03:25:44;;;;;;;0.10;0.10;;;8.00;99.90;;;;;;5031627;28;20216;-85
2021/01/30 03:28:11;;;;;;;0.07;0.07;;;8.00;99.90;;;;;;5031372;28;20171;-84
2021/01/30 03:30:37;;;;;;;0.10;0.10;;;8.00;99.90;;;;;;5043116;28;20689;-84
2021/01/30 03:33:05;;;;;;;0.07;0.07;;;7.90;99.90;;;;;;5050734;28;20225;-84
2021/01/30 03:35:30;;;;;;;0.10;0.10;;;7.90;99.90;;;;;;5038276;28;20178;-84
2021/01/30 03:37:56;;;;;;;1.60;1.00;;;7.90;99.90;;;;;;5038998;28;20190;-84
2021/01/30 03:40:23;;;;;;;0.27;0.27;;;8.00;99.90;;;;;;5043528;28;20253;-84
2021/01/30 03:42:49;;;;;;;0.00;0.00;;;7.90;99.90;;;;;;5046689;28;20264;-84
2021/01/30 03:45:18;;;;;;;0.10;0.10;;;7.90;99.90;;;;;;5044081;28;20217;-85
2021/01/30 03:47:44;;;;;;;0.10;0.10;;;8.00;99.90;;;;;;5044183;28;20181;-84
2021/01/30 03:50:11;;;;;;;0.10;0.10;;;8.00;99.90;;;;;;5021892;28;20214;-84
2021/01/30 03:52:37;;;;;;;0.20;0.20;;;8.00;99.90;;;;;;5039030;28;20188;-84
2021/01/30 03:55:04;;;;;;;0.20;0.20;;;8.00;99.90;;;;;;5031052;28;20186;-84
2021/01/30 03:57:30;;;;;;;0.10;0.10;;;8.00;99.90;;;;;;5031080;28;20182;-85
2021/01/30 03:59:55;;;;;;;0.10;0.10;;;7.90;99.90;;;;;;5030017;28;20297;-86
2021/01/30 04:02:21;;;;;;;0.00;0.00;;;7.90;99.90;;;;;;5044003;28;20197;-84
2021/01/30 04:04:47;;;;;;;0.30;0.23;;;7.90;99.90;;;;;;5041441;28;20182;-84
2021/01/30 04:07:14;;;;;;;0.17;0.17;;;7.90;99.90;;;;;;5038564;28;20247;-84
2021/01/30 04:09:40;;;;;;;0.10;0.10;;;7.80;99.90;;;;;;5039255;28;20585;-84
2021/01/30 04:12:06;;;;;;;0.10;0.10;;;7.80;99.90;;;;;;5042582;28;20196;-85
2021/01/30 04:14:33;;;;;;;0.10;0.10;;;7.80;99.90;;;;;;5046611;28;20205;-84
2021/01/30 04:16:59;;;;;;;0.20;0.20;;;7.80;99.90;;;;;;5048078;28;20203;-84
2021/01/30 04:19:24;;;;;;;0.10;0.10;;;7.80;99.90;;;;;;5044670;28;20214;-85
2021/01/30 04:21:50;;;;;;;0.10;0.10;;;7.70;99.90;;;;;;5052312;28;20186;-84
2021/01/30 04:24:16;;;;;;;0.30;0.30;;;7.70;99.90;;;;;;5036794;28;20182;-84
2021/01/30 04:26:46;;;;;;;0.10;0.10;;;7.70;99.90;;;;;;5044686;28;20628;-83
2021/01/30 04:29:11;;;;;;;0.10;0.10;;;7.70;99.90;;;;;;5043321;28;20185;-85
2021/01/30 04:31:37;;;;;;;0.00;0.00;;;7.70;99.90;;;;;;5038561;28;20207;-84
2021/01/30 04:34:02;;;;;;;2.27;0.33;;;7.70;99.90;;;;;;5036038;28;20193;-84
2021/01/30 04:36:28;;;;;;;0.20;0.20;;;7.70;99.90;;;;;;5045019;28;20182;-84
2021/01/30 04:38:54;;;;;;;0.10;0.10;;;7.70;99.90;;;;;;5050423;28;20238;-84
2021/01/30 04:41:45;;;;;;;0.07;0.07;;;7.70;99.90;;;;;;5033936;28;20198;-84
2021/01/30 04:44:28;;;;;;;0.00;0.00;;;7.70;99.90;;;;;;5046453;28;20614;-86
2021/01/30 04:46:59;;;;;;;0.10;0.10;;;7.70;99.90;;;;;;5047159;28;20253;-86
2021/01/30 04:49:45;;;;;;;0.10;0.10;;;7.70;99.90;;;;;;5049504;28;20186;-85
2021/01/30 04:52:19;;;;;;;0.43;0.10;;;7.80;99.90;;;;;;5037864;28;20182;-84
2021/01/30 04:54:54;;;;;;;0.40;0.30;;;7.70;99.90;;;;;;5048534;28;20212;-84
2021/01/30 04:58:05;;;;;;;0.00;0.00;;;7.70;99.90;;;;;;5045622;28;20787;-84
2021/01/30 05:00:53;;;;;;;0.10;0.10;;;7.70;99.90;;;;;;5037491;28;20702;-85
2021/01/30 05:03:53;;;;;;;0.20;0.20;;;7.70;99.90;;;;;;5046062;28;20206;-84
2021/01/30 05:06:48;;;;;;;0.00;0.00;;;7.80;99.90;;;;;;5053173;28;20191;-84
2021/01/30 05:09:19;;;;;;;0.13;0.13;;;7.80;99.90;;;;;;5037214;28;20394;-85
2021/01/30 05:11:53;;;;;;;0.10;0.10;;;7.80;99.90;;;;;;5046163;28;20181;-83
2021/01/30 05:14:46;;;;;;;0.20;0.20;;;7.80;99.90;;;;;;5030065;28;20193;-88
2021/01/30 05:17:23;;;;;;;0.10;0.10;;;7.80;99.90;;;;;;5037002;28;20205;-84
2021/01/30 05:19:57;;;;;;;0.57;0.50;;;7.90;99.90;;;;;;5039880;28;20217;-85
2021/01/30 05:22:33;;;;;;;0.17;0.17;;;7.90;99.90;;;;;;5047038;28;20214;-84
2021/01/30 05:24:59;;;;;;;0.10;0.10;;;7.90;99.90;;;;;;5019559;28;20218;-84
2021/01/30 05:27:45;;;;;;;0.00;0.00;;;7.90;99.90;;;;;;5044225;28;20228;-85
2021/01/30 05:30:41;;;;;;;0.10;0.10;;;7.90;99.90;;;;;;5028264;28;20256;-84
2021/01/30 05:33:15;;;;;;;0.10;0.10;;;7.90;99.90;;;;;;5036024;28;20186;-86
2021/01/30 05:36:05;;;;;;;0.03;0.03;;;7.90;99.90;;;;;;5046196;28;20175;-85
2021/01/30 05:38:56;;;;;;;0.00;0.00;;;8.00;99.90;;;;;;5047175;28;20210;-85
2021/01/30 05:41:37;;;;;;;0.10;0.10;;;8.00;99.90;;;;;;5037010;28;21086;-84
2021/01/30 05:44:32;;;;;;;0.10;0.10;;;8.00;99.90;;;;;;5034880;28;20189;-84
2021/01/30 05:46:58;;;;;;;0.10;0.10;;;8.00;99.90;;;;;;5022750;28;20647;-84
2021/01/30 05:49:31;;;;;;;0.10;0.10;;;8.00;99.90;;;;;;5035335;28;20221;-84
2021/01/30 05:52:08;;;;;;;0.10;0.10;;;8.00;99.90;;;;;;5039218;28;20197;-85
2021/01/30 05:54:33;;;;;;;0.27;0.20;;;8.00;99.90;;;;;;5048328;28;20181;-84
2021/01/30 05:56:59;;;;;;;0.10;0.10;;;8.00;99.90;;;;;;5043355;28;20179;-86
2021/01/30 05:59:28;;;;;;;0.10;0.10;;;7.90;99.90;;;;;;5029731;28;20241;-83
2021/01/30 06:02:21;;;;;;;0.00;0.00;;;8.00;99.90;;;;;;5051877;28;20210;-84
2021/01/30 06:04:47;;;;;;;0.10;0.10;;;7.90;99.90;;;;;;5020033;28;20187;-84
2021/01/30 06:07:35;;;;;;;0.00;0.00;;;8.00;99.90;;;;;;5059981;28;20188;-84
2021/01/30 06:10:31;;;;;;;0.10;0.10;;;8.00;99.90;;;;;;5038807;28;20588;-84
2021/01/30 06:13:12;;;;;;;0.00;0.00;;;8.00;99.90;;;;;;5031782;28;20220;-84
2021/01/30 06:15:42;;;;;;;0.03;0.03;;;8.00;99.90;;;;;;5034343;28;20223;-84
2021/01/30 06:18:36;;;;;;;0.00;0.00;;;8.00;99.90;;;;;;5047902;28;20240;-86
2021/01/30 06:21:31;;;;;;;0.10;0.10;;;7.90;99.90;;;;;;5032646;28;20247;-86
2021/01/30 06:24:09;;;;;;;0.07;0.07;;;7.90;99.90;;;;;;5038345;28;20324;-86
2021/01/30 06:26:47;;;;;;;0.10;0.10;;;7.90;99.90;;;;;;5036279;28;20202;-83
2021/01/30 06:29:43;;;;;;;0.10;0.10;;;7.80;99.90;;;;;;5017487;28;20189;-84
2021/01/30 06:32:11;;;;;;;0.10;0.10;;;7.80;99.90;;;;;;5036703;28;20240;-84
2021/01/30 06:34:38;;;;;;;0.10;0.10;;;7.80;99.90;;;;;;5050183;28;20180;-84
2021/01/30 06:37:11;;;;;;;0.00;0.00;;;7.70;99.90;;;;;;5046253;28;20186;-85
2021/01/30 06:39:43;;;;;;;0.00;0.00;;;7.70;99.90;;;;;;5042591;28;20232;-84
2021/01/30 06:42:16;;;;;;;0.10;0.10;;;7.80;99.90;;;;;;5028610;28;20187;-82
2021/01/30 06:44:43;;;;;;;0.10;0.10;;;7.80;99.90;;;;;;5042855;28;20568;-84
2021/01/30 06:47:16;;;;;;;0.10;0.10;;;7.90;99.90;;;;;;5037125;28;20220;-84
2021/01/30 06:49:46;;;;;;;0.10;0.10;;;7.80;99.90;;;;;;5045416;28;20214;-84
2021/01/30 06:52:28;;;;;;;0.10;0.10;;;7.80;99.90;;;;;;5033813;28;20676;-83
2021/01/30 06:55:05;;;;;;;0.00;0.00;;;7.80;99.90;;;;;;5036257;28;20194;-84
2021/01/30 06:57:40;;;;;;;0.10;0.10;;;7.80;99.90;;;;;;5043560;28;20555;-83
2021/01/30 07:00:15;;;;;;;0.00;0.00;;;7.80;99.90;;;;;;5044401;28;20214;-83
2021/01/30 07:03:19;;;;;;;0.10;0.10;;;7.80;99.90;;;;;;5064106;28;20192;-83
2021/01/30 07:06:13;;;;;;;0.10;0.10;;;7.90;99.90;;;;;;5036636;28;20194;-83
2021/01/30 07:08:57;;;;;;;0.00;0.00;;;7.80;99.90;;;;;;5058323;28;20178;-82
2021/01/30 07:11:52;;;;;;;0.10;0.10;;;7.90;99.90;;;;;;5031823;28;20577;-83
2021/01/30 07:14:33;;;;;;;0.10;0.10;;;7.90;99.90;;;;;;5046479;28;20190;-83
2021/01/30 07:17:12;;;;;;;0.10;0.10;;;7.90;99.90;;;;;;5043183;28;20209;-83
2021/01/30 07:19:53;;;;;;;0.10;0.10;;;7.90;99.90;;;;;;5041638;28;20583;-84
2021/01/30 07:22:49;;;;;;;0.10;0.10;;;7.90;99.90;;;;;;5039767;28;20290;-84
2021/01/30 07:25:19;;;;;;;0.00;0.00;;;8.00;99.90;;;;;;5047711;28;20195;-84
2021/01/30 07:27:52;;;;;;;0.10;0.10;;;8.00;99.90;;;;;;5040975;28;20186;-83
2021/01/30 07:30:28;;;;;;;1.13;0.30;;;8.00;99.90;;;;;;5042618;28;20245;-82
2021/01/30 07:33:04;;;;;;;0.10;0.10;;;7.90;99.90;;;;;;5033012;28;20265;-83
2021/01/30 07:35:55;;;;;;;0.10;0.10;;;8.00;99.90;;;;;;5037324;28;20183;-83
2021/01/30 07:38:55;;;;;;;0.10;0.10;;;8.00;99.90;;;;;;5044106;28;20182;-83
2021/01/30 07:41:48;;;;;;;0.10;0.10;;;8.00;99.90;;;;;;5038211;28;20194;-83
2021/01/30 07:44:21;;;;;;;0.70;0.60;;;8.10;99.90;;;;;;5046262;28;20186;-83
2021/01/30 07:46:58;;;;;;;0.00;0.00;;;8.10;99.90;;;;;;5036101;28;20195;-84
2021/01/30 07:49:28;;;;;;;0.10;0.10;;;8.00;99.90;;;;;;5036666;28;20204;-84
2021/01/30 07:52:08;;;;;;;0.00;0.00;;;8.10;99.90;;;;;;5037652;28;20189;-83
2021/01/30 07:54:42;;;;;;;0.00;0.00;;;8.10;99.90;;;;;;5046212;28;20268;-82
2021/01/30 07:57:15;;;;;;;0.10;0.10;;;8.10;99.90;;;;;;5036056;28;20278;-83
2021/01/30 08:00:01;;;;;;;0.10;0.10;;;8.10;99.90;;;;;;5024450;28;20254;-84
2021/01/30 08:03:01;;;;;;;0.00;0.00;;;8.10;99.90;;;;;;5044859;28;20182;-84
2021/01/30 08:06:08;;;;;;;0.20;0.20;;;8.10;99.90;;;;;;5031453;28;20194;-84
2021/01/30 08:08:40;;;;;;;0.10;0.10;;;8.20;99.90;;;;;;5042340;28;20196;-85
2021/01/30 08:11:21;;;;;;;0.10;0.10;;;8.20;99.90;;;;;;5031387;28;20213;-83
2021/01/30 08:14:12;;;;;;;0.10;0.10;;;8.20;99.90;;;;;;5028978;28;20257;-83
2021/01/30 08:16:47;;;;;;;0.10;0.10;;;8.20;99.90;;;;;;5027786;28;20285;-84
2021/01/30 08:19:20;;;;;;;0.87;0.20;;;8.20;99.90;;;;;;5039671;28;20201;-84
2021/01/30 08:21:58;;;;;;;0.10;0.10;;;8.20;99.90;;;;;;5048091;28;20182;-84
2021/01/30 08:24:45;;;;;;;0.10;0.10;;;8.30;99.90;;;;;;5028886;28;20220;-83
2021/01/30 08:27:22;;;;;;;0.73;0.67;;;8.30;99.90;;;;;;5046016;28;20181;-84
2021/01/30 08:29:50;;;;;;;0.00;0.00;;;8.30;99.90;;;;;;5042376;28;20299;-82
2021/01/30 08:32:24;;;;;;;0.00;0.00;;;8.20;99.90;;;;;;5023041;28;20183;-86
2021/01/30 08:34:56;;;;;;;0.00;0.00;;;8.20;99.90;;;;;;5025670;28;20714;-86
2021/01/30 08:37:24;;;;;;;0.10;0.10;;;8.20;99.90;;;;;;5029510;28;20265;-86
2021/01/30 08:40:01;;;;;;;0.10;0.10;;;8.20;99.90;;;;;;5034413;28;20210;-83
2021/01/30 08:42:59;;;;;;;0.10;0.10;;;8.30;99.90;;;;;;5033587;28;20183;-83
2021/01/30 08:45:31;;;;;;;0.00;0.00;;;8.30;99.90;;;;;;5037239;28;20201;-84
2021/01/30 08:48:18;;;;;;;0.00;0.00;;;8.30;99.90;;;;;;5029869;28;20296;-85
2021/01/30 08:50:46;;;;;;;0.13;0.13;;;8.40;99.90;;;;;;5033815;28;20259;-87
2021/01/30 08:53:15;;;;;;;0.00;0.00;;;8.40;99.90;;;;;;5039441;28;20333;-84
2021/01/30 08:55:43;;;;;;;0.10;0.10;;;8.50;99.90;;;;;;5043894;28;20178;-85
2021/01/30 08:58:32;;;;;;;0.10;0.10;;;8.50;99.90;;;;;;5041094;28;20181;-86
2021/01/30 09:01:04;;;;;;;0.00;0.00;;;8.50;99.90;;;;;;5029822;28;20556;-84
2021/01/30 09:03:52;;;;;;;0.30;0.30;;;8.50;99.90;;;;;;5043505;28;20177;-84
2021/01/30 09:06:39;;;;;;;0.00;0.00;;;7.80;99.90;;;;;;5029421;28;20185;-85
2021/01/30 09:09:25;;;;;;;0.00;0.00;;;7.30;99.90;;;;;;5039737;28;20189;-84
2021/01/30 09:11:59;;;;;;;0.07;0.07;;;7.10;99.90;;;;;;5035296;28;20186;-83
2021/01/30 09:14:27;;;;;;;0.10;0.10;;;6.90;99.90;;;;;;5040777;28;20596;-83
2021/01/30 09:16:56;;;;;;;0.00;0.00;;;6.80;99.90;;;;;;5040421;28;20228;-83
2021/01/30 09:19:49;;;;;;;0.00;0.00;;;6.60;99.90;;;;;;5046652;28;20200;-81
2021/01/30 09:22:24;;;;;;;0.00;0.00;;;6.50;99.90;;;;;;5030739;28;20175;-84
2021/01/30 09:25:11;;;;;;;0.00;0.00;;;6.40;99.90;;;;;;5043221;28;20608;-85
2021/01/30 09:27:57;;;;;;;0.00;0.00;;;6.50;99.90;;;;;;5042379;28;20662;-84
2021/01/30 09:30:55;;;;;;;0.00;0.00;;;6.50;99.90;;;;;;5047603;28;20200;-84
2021/01/30 09:33:25;;;;;;;0.00;0.00;;;6.80;99.90;;;;;;5038457;28;20197;-84
2021/01/30 09:36:06;;;;;;;0.00;0.00;;;7.00;99.90;;;;;;5042634;28;20658;-83
2021/01/30 09:38:44;;;;;;;0.20;0.20;;;6.90;99.90;;;;;;5060535;28;20206;-84
2021/01/30 09:41:25;;;;;;;0.33;0.10;;;6.90;99.90;;;;;;5036569;28;20191;-83
2021/01/30 09:44:08;;;;;;;0.10;0.10;;;6.70;99.90;;;;;;5036255;28;20642;-83
2021/01/30 09:46:40;;;;;;;0.03;0.03;;;6.60;99.90;;;;;;5036705;28;20177;-84
2021/01/30 09:49:15;;;;;;;0.10;0.10;;;6.20;99.90;;;;;;5045693;28;20204;-84
2021/01/30 09:51:57;;;;;;;0.00;0.00;;;6.20;99.90;;;;;;5049334;28;20207;-83
2021/01/30 09:54:36;;;;;;;0.30;0.30;;;6.00;99.90;;;;;;5020765;28;20643;-83
2021/01/30 09:57:28;;;;;;;0.13;0.10;;;5.40;99.90;;;;;;5031138;28;20259;-85
2021/01/30 10:00:00;;;;;;;0.20;0.20;;;4.70;99.90;;;;;;5030468;28;20382;-86
2021/01/30 10:02:29;;;;;;;0.20;0.20;;;5.00;99.90;;;;;;5030287;28;20668;-86
2021/01/30 10:05:21;;;;;;;0.53;0.20;;;4.70;99.90;;;;;;5040876;28;20192;-86
2021/01/30 10:07:46;;;;;;;0.13;0.13;;;4.50;99.90;;;;;;5034745;28;20185;-85
2021/01/30 10:10:24;;;;;;;0.20;0.20;;;4.50;99.90;;;;;;5044020;28;20204;-85
2021/01/30 10:12:51;;;;;;;0.10;0.10;;;4.50;99.90;;;;;;5020287;28;20180;-85
2021/01/30 10:15:32;;;;;;;0.10;0.10;;;4.40;99.90;;;;;;5040905;28;20187;-85
2021/01/30 10:18:19;;;;;;;0.00;0.00;;;4.20;99.90;;;;;;5039241;28;20721;-84
2021/01/30 10:20:56;;;;;;;0.40;0.20;;;3.90;99.90;;;;;;5048344;28;20229;-84
2021/01/30 10:23:37;;;;;;;1.60;0.30;;;4.10;99.90;;;;;;5040604;28;20383;-83
2021/01/30 10:26:07;;;;;;;0.30;0.27;;;4.10;99.90;;;;;;5027121;28;20179;-83
2021/01/30 10:28:44;;;;;;;0.10;0.10;;;4.10;99.90;;;;;;5047301;28;20176;-83
2021/01/30 10:31:11;;;;;;;0.37;0.30;;;4.10;99.90;;;;;;5043007;28;20276;-82
2021/01/30 10:33:41;;;;;;;0.13;0.13;;;4.10;99.90;;;;;;5027873;28;20221;-85
2021/01/30 10:36:07;;;;;;;0.17;0.17;;;4.00;99.90;;;;;;5039617;28;20218;-83
2021/01/30 10:38:34;;;;;;;0.10;0.10;;;4.10;99.90;;;;;;5039613;28;20268;-84
2021/01/30 10:41:03;;;;;;;0.13;0.03;;;4.20;99.90;;;;;;5034636;28;20192;-84
2021/01/30 10:43:34;;;;;;;0.00;0.00;;;4.00;99.90;;;;;;5047279;28;20183;-84
2021/01/30 10:46:04;;;;;;;0.27;0.27;;;3.50;99.90;;;;;;5044458;28;20681;-82
2021/01/30 10:48:33;;;;;;;0.10;0.10;;;3.50;99.90;;;;;;5036087;28;20170;-81
2021/01/30 10:51:31;;;;;;;0.13;0.13;;;3.60;99.90;;;;;;5041481;28;20202;-83
2021/01/30 10:54:23;;;;;;;0.17;0.17;;;3.60;99.90;;;;;;5045169;28;20706;-84
2021/01/30 10:57:04;;;;;;;0.50;0.27;;;3.40;99.90;;;;;;5042340;28;20191;-85
2021/01/30 10:59:46;;;;;;;0.17;0.17;;;3.30;99.90;;;;;;5044319;28;20755;-82
2021/01/30 11:02:39;;;;;;;0.50;0.20;;;3.20;99.90;;;;;;5036185;28;20232;-83
2021/01/30 11:05:09;;;;;;;1.17;0.47;;;3.10;99.90;;;;;;5031305;28;20182;-82
2021/01/30 11:07:44;;;;;;;2.20;2.07;;;3.10;99.90;;;;;;5042940;28;20178;-82
2021/01/30 11:10:25;;;;;;;4.80;1.20;;;2.90;99.90;;;;;;5033425;28;20213;-82
2021/01/30 11:12:51;;;;;;;0.30;0.17;;;3.00;99.90;;;;;;5037152;28;20188;-83
2021/01/30 11:15:23;;;;;;;0.90;0.47;;;3.10;99.90;;;;;;5024745;28;20190;-83
2021/01/30 11:17:49;;;;;;;0.33;0.33;;;2.90;99.90;;;;;;5029684;28;20193;-83
2021/01/30 11:21:07;;;;;;;0.20;0.20;;;2.70;99.90;;;;;;5044438;28;20224;-84
2021/01/30 11:23:41;;;;;;;0.07;0.07;;;2.90;99.90;;;;;;5046941;28;20656;-82
2021/01/30 11:26:33;;;;;;;0.20;0.17;;;2.80;99.90;;;;;;5052809;28;20185;-82
2021/01/30 11:28:59;;;;;;;0.63;0.63;;;2.80;99.90;;;;;;5030765;28;20195;-84
2021/01/30 11:31:26;;;;;;;3.43;2.80;;;2.70;99.90;;;;;;5037231;28;20238;-84
2021/01/30 11:33:56;;;;;;;3.33;2.03;;;2.60;99.90;;;;;;5025383;28;20177;-84
2021/01/30 11:36:22;;;;;;;5.57;2.80;;;2.60;99.90;;;;;;5020628;28;20195;-81
2021/01/30 11:38:59;;;;;;;1.77;1.50;;;2.70;99.90;;;;;;5036440;28;20237;-85
2021/01/30 11:41:25;;;;;;;2.47;2.27;;;2.90;99.90;;;;;;5038652;28;20190;-82
2021/01/30 11:43:51;;;;;;;2.33;1.40;;;3.00;99.90;;;;;;5040080;28;20177;-81
2021/01/30 11:46:17;;;;;;;0.33;0.30;;;3.20;99.90;;;;;;5042491;28;20175;-83
2021/01/30 11:48:43;;;;;;;0.83;0.30;;;3.10;99.90;;;;;;5043005;28;20196;-84
2021/01/30 11:51:24;;;;;;;0.10;0.10;;;2.90;99.90;;;;;;5033392;28;20209;-82
2021/01/30 11:53:50;;;;;;;0.20;0.20;;;3.00;99.90;;;;;;5027887;28;20187;-84
2021/01/30 11:56:18;;;;;;;0.30;0.30;;;3.20;99.90;;;;;;5029651;28;20660;-84
2021/01/30 11:58:44;;;;;;;0.30;0.30;;;3.20;99.90;;;;;;5043280;28;20202;-84
2021/01/30 12:01:13;;;;;;;0.33;0.33;;;3.10;99.90;;;;;;5018222;28;20205;-84
2021/01/30 12:03:38;;;;;;;0.10;0.10;;;2.90;99.90;;;;;;5019769;28;20230;-83
2021/01/30 12:06:04;;;;;;;0.33;0.33;;;2.80;99.90;;;;;;5050608;28;20183;-83
2021/01/30 12:08:30;;;;;;;0.30;0.30;;;2.90;99.90;;;;;;5042660;28;20195;-84
2021/01/30 12:10:56;;;;;;;3.17;2.97;;;2.90;99.90;;;;;;5032256;28;20230;-84
2021/01/30 12:13:30;;;;;;;0.40;0.40;;;3.00;99.90;;;;;;5041553;28;20276;-85
2021/01/30 12:15:56;;;;;;;0.40;0.40;;;2.90;99.90;;;;;;5028541;28;20207;-82
2021/01/30 12:18:22;;;;;;;0.20;0.20;;;3.10;99.90;;;;;;5025585;28;20190;-87
2021/01/30 12:20:51;;;;;;;0.50;0.37;;;3.10;99.90;;;;;;5042307;28;20780;-84
2021/01/30 12:23:26;;;;;;;2.80;1.67;;;3.00;99.90;;;;;;5032264;28;20217;-83
2021/01/30 12:25:52;;;;;;;0.23;0.23;;;3.10;99.90;;;;;;5027398;28;20686;-84
2021/01/30 12:28:24;;;;;;;0.57;0.50;;;3.10;99.90;;;;;;5027748;28;20260;-84
2021/01/30 12:30:58;;;;;;;0.10;0.10;;;3.10;99.90;;;;;;5024993;28;20696;-84
2021/01/30 12:33:24;;;;;;;0.97;0.87;;;3.00;99.90;;;;;;5034341;28;20591;-85
2021/01/30 12:35:50;;;;;;;0.50;0.50;;;3.10;99.90;;;;;;5038188;28;20203;-82
2021/01/30 12:38:16;;;;;;;0.30;0.30;;;3.00;99.90;;;;;;5037332;28;20338;-83
2021/01/30 12:40:45;;;;;;;0.20;0.20;;;3.30;99.90;;;;;;5045162;28;20214;-83
2021/01/30 12:43:12;;;;;;;0.23;0.23;;;3.40;99.90;;;;;;5036014;28;20182;-83
2021/01/30 12:45:38;;;;;;;0.30;0.30;;;3.40;99.90;;;;;;5043285;28;20186;-87
2021/01/30 12:48:04;;;;;;;0.10;0.10;;;3.40;99.90;;;;;;5034574;28;20185;-83
2021/01/30 12:50:31;;;;;;;0.33;0.23;;;3.40;99.90;;;;;;5036362;28;20211;-84
2021/01/30 12:52:57;;;;;;;0.10;0.10;;;3.40;99.90;;;;;;5044970;28;20182;-84
2021/01/30 12:55:23;;;;;;;0.60;0.60;;;3.30;99.90;;;;;;5036065;28;20688;-83
2021/01/30 12:57:49;;;;;;;0.20;0.17;;;3.20;99.90;;;;;;5040870;28;20182;-83
2021/01/30 13:00:20;;;;;;;0.20;0.20;;;3.20;99.90;;;;;;5044624;28;20213;-84
2021/01/30 13:02:46;;;;;;;0.40;0.40;;;3.20;99.90;;;;;;5039217;28;20834;-83
2021/01/30 13:05:13;;;;;;;0.20;0.20;;;3.10;99.90;;;;;;5040023;28;20183;-85
2021/01/30 13:07:39;;;;;;;0.67;0.67;;;3.10;99.90;;;;;;5035325;28;20175;-83
2021/01/30 13:10:07;;;;;;;0.10;0.10;;;3.10;99.90;;;;;;5038964;28;20239;-85
2021/01/30 13:12:33;;;;;;;0.20;0.20;;;3.00;99.90;;;;;;5048710;28;20197;-83
2021/01/30 13:14:59;;;;;;;0.50;0.40;;;2.80;99.90;;;;;;5043081;28;20186;-83
2021/01/30 13:17:24;;;;;;;0.27;0.27;;;2.80;99.90;;;;;;5048750;28;20201;-85
2021/01/30 13:19:50;;;;;;;0.60;0.60;;;2.70;99.90;;;;;;5048125;28;20218;-82
2021/01/30 13:22:19;;;;;;;0.43;0.37;;;2.70;99.90;;;;;;5036941;28;20687;-82
2021/01/30 13:24:44;;;;;;;0.37;0.37;;;2.70;99.90;;;;;;5034510;28;20568;-83
2021/01/30 13:27:10;;;;;;;0.67;0.43;;;2.60;99.90;;;;;;5052210;28;20193;-84
2021/01/30 13:29:35;;;;;;;0.50;0.50;;;2.50;99.90;;;;;;5054828;28;20184;-83
2021/01/30 13:32:02;;;;;;;0.30;0.30;;;2.40;99.90;;;;;;5041729;28;20182;-84
2021/01/30 13:34:28;;;;;;;0.57;0.57;;;2.40;99.90;;;;;;5043149;28;20186;-83